Aérodrome :
LOGIN :

S'inscrire | Disclaimer

   EN    FR    IT 

 










Légende :    VFR   VFR Marginal   IFR   IFR Intensif   IFR Très Intensif
Visi : 
Plafond : 
>= 8 km
>= 3000ft
5 à 8 km
1000 à 3000 ft
1500m à 5 km
500 à 1000 ft
800 à 1500m
200 à 500 ft
< 800m
< 200 ft
Symboles :   Orages  Brouillard  Fortes neiges  Fortes précipitations  Vent > 20 kt
SIGMETs :   Divers  Orages  Givrage  Turbulence  Onde Orograph.  Cendres Volcan.







- Altitude de l'aérodrome : 2096 ft
- Code IATA : AUR
- Voir les cartes d'approche


LFLW - Aurillac

DERNIER METAR :
  • 220630Z AUTO VRB02KT 7000 NSC M06/M07 Q1007 TEMPO 4000 BR BECMG 34012KT

METARs EXPIRÉS :
  • 220600Z AUTO 26001KT 9000 NSC M06/M07 Q1007 TEMPO 4000 BR
  • 220530Z AUTO 15002KT 9000 NSC M06/M07 Q1007 TEMPO 4000 BR
  • 220500Z AUTO VRB04KT 9000 NSC M05/M07 Q1007
  • 220430Z AUTO 19003KT CAVOK M05/M07 Q1007
  • 220400Z AUTO VRB03KT 7000 NSC M05/M07 Q1007

TAF TAF LFLW
Valide du 22 à 06h jusqu'au 22 à 15h UTC


220500Z 2206/2215 34012KT CAVOK
PROB30
TEMPO 2206/2208 VRB02KT 4000 BR
Pas de NOTAMs connus pour ce terrain.
1 SIGMET publié pour la FIR Bordeaux (LFBB) :
 
Turbulence forte
LFBB SIGMET 1 VALID 220600/220900 LFPW
LFBB BORDEAUX FIR/UIR SEV TURB FCST WI N4700 E00215 - N4630 E00300 - N4215 E00230 - N4230 E00045 - N4700 E00215 FL170/250 MOV SW 25KT NC=



MET'MAP, la Météo Aéronautique d'un coup d'oeil ! - Copyright ORBIFLY Décembre 2007 - Disclaimer

ORBIFLY MET'MAP TEAM :

Programmation & Développement : Alexandra Zaïnal
Conception & Développement : Baudouin d'Aumeries
Co-Programmation & Développement : Marc-Olivier Méhu
Soutien technique & logistique : Manuel Goepfert

Contact : metmap@orbifly.com




SOURCES & CREDITS :

   NOAA